sensor_id;sensor_type;location;lat;lon;timestamp;pressure;altitude;pressure_sealevel;temperature
40968;BMP280;57377;45.130;6.038;2022-08-04T00:10:49;92672.50;;;25.69
40968;BMP280;57377;45.130;6.038;2022-08-04T00:13:31;92671.88;;;26.03
40968;BMP280;57377;45.130;6.038;2022-08-04T00:16:35;92665.06;;;26.16
40968;BMP280;57377;45.130;6.038;2022-08-04T00:26:12;92653.97;;;26.14
40968;BMP280;57377;45.130;6.038;2022-08-04T00:28:43;92645.50;;;25.88
40968;BMP280;57377;45.130;6.038;2022-08-04T00:31:37;92668.06;;;26.11
40968;BMP280;57377;45.130;6.038;2022-08-04T00:34:11;92658.09;;;25.84
40968;BMP280;57377;45.130;6.038;2022-08-04T00:36:45;92659.63;;;25.88
40968;BMP280;57377;45.130;6.038;2022-08-04T00:39:12;92657.34;;;25.94
40968;BMP280;57377;45.130;6.038;2022-08-04T00:54:11;92653.16;;;25.86
40968;BMP280;57377;45.130;6.038;2022-08-04T00:57:09;92665.28;;;25.80
40968;BMP280;57377;45.130;6.038;2022-08-04T01:00:07;92661.88;;;25.83
40968;BMP280;57377;45.130;6.038;2022-08-04T01:03:07;92664.19;;;25.84
40968;BMP280;57377;45.130;6.038;2022-08-04T01:05:48;92669.84;;;25.76
40968;BMP280;57377;45.130;6.038;2022-08-04T01:11:34;92663.75;;;25.72
40968;BMP280;57377;45.130;6.038;2022-08-04T01:14:12;92661.47;;;25.74
40968;BMP280;57377;45.130;6.038;2022-08-04T01:16:57;92668.53;;;25.46
40968;BMP280;57377;45.130;6.038;2022-08-04T01:29:02;92685.41;;;25.60
40968;BMP280;57377;45.130;6.038;2022-08-04T01:31:44;92689.50;;;25.47
40968;BMP280;57377;45.130;6.038;2022-08-04T01:34:23;92691.00;;;25.48
40968;BMP280;57377;45.130;6.038;2022-08-04T01:40:03;92688.84;;;25.64
40968;BMP280;57377;45.130;6.038;2022-08-04T01:42:33;92693.28;;;25.46
40968;BMP280;57377;45.130;6.038;2022-08-04T01:45:05;92695.47;;;25.31
40968;BMP280;57377;45.130;6.038;2022-08-04T01:48:24;92690.88;;;25.28
40968;BMP280;57377;45.130;6.038;2022-08-04T01:50:43;92687.69;;;25.02
40968;BMP280;57377;45.130;6.038;2022-08-04T01:53:13;92683.94;;;25.13
40968;BMP280;57377;45.130;6.038;2022-08-04T01:55:51;92692.81;;;25.31
40968;BMP280;57377;45.130;6.038;2022-08-04T01:58:36;92691.97;;;25.16
40968;BMP280;57377;45.130;6.038;2022-08-04T02:01:10;92690.75;;;25.07
40968;BMP280;57377;45.130;6.038;2022-08-04T02:03:41;92681.72;;;25.22
40968;BMP280;57377;45.130;6.038;2022-08-04T02:11:26;92683.28;;;25.26
40968;BMP280;57377;45.130;6.038;2022-08-04T02:14:15;92683.22;;;25.19
40968;BMP280;57377;45.130;6.038;2022-08-04T02:17:09;92680.66;;;25.37
40968;BMP280;57377;45.130;6.038;2022-08-04T02:19:50;92683.38;;;25.44
40968;BMP280;57377;45.130;6.038;2022-08-04T02:22:21;92684.03;;;25.27
40968;BMP280;57377;45.130;6.038;2022-08-04T02:24:57;92682.22;;;25.44
40968;BMP280;57377;45.130;6.038;2022-08-04T02:27:29;92682.63;;;25.46
40968;BMP280;57377;45.130;6.038;2022-08-04T02:30:03;92681.16;;;24.99
40968;BMP280;57377;45.130;6.038;2022-08-04T02:32:38;92677.84;;;25.13
40968;BMP280;57377;45.130;6.038;2022-08-04T02:35:07;92679.69;;;25.02
40968;BMP280;57377;45.130;6.038;2022-08-04T02:37:37;92687.00;;;25.12
40968;BMP280;57377;45.130;6.038;2022-08-04T02:40:04;92687.69;;;25.09
40968;BMP280;57377;45.130;6.038;2022-08-04T02:42:32;92691.81;;;24.96
40968;BMP280;57377;45.130;6.038;2022-08-04T02:44:59;92698.28;;;24.98
40968;BMP280;57377;45.130;6.038;2022-08-04T02:47:27;92692.22;;;25.01
40968;BMP280;57377;45.130;6.038;2022-08-04T02:49:56;92704.31;;;24.88
40968;BMP280;57377;45.130;6.038;2022-08-04T02:52:23;92698.56;;;24.86
40968;BMP280;57377;45.130;6.038;2022-08-04T02:54:52;92696.78;;;25.01
40968;BMP280;57377;45.130;6.038;2022-08-04T02:57:22;92689.94;;;25.03
40968;BMP280;57377;45.130;6.038;2022-08-04T02:59:58;92693.38;;;25.00
40968;BMP280;57377;45.130;6.038;2022-08-04T03:02:41;92688.00;;;24.97
40968;BMP280;57377;45.130;6.038;2022-08-04T03:05:17;92696.50;;;25.16
40968;BMP280;57377;45.130;6.038;2022-08-04T03:25:39;92692.25;;;24.62
40968;BMP280;57377;45.130;6.038;2022-08-04T03:30:40;92691.56;;;24.72
40968;BMP280;57377;45.130;6.038;2022-08-04T03:36:30;92685.50;;;24.75
40968;BMP280;57377;45.130;6.038;2022-08-04T03:39:20;92691.91;;;24.67
40968;BMP280;57377;45.130;6.038;2022-08-04T03:48:00;92695.84;;;24.40
40968;BMP280;57377;45.130;6.038;2022-08-04T03:56:29;92699.19;;;24.30
40968;BMP280;57377;45.130;6.038;2022-08-04T03:59:08;92707.44;;;24.22
40968;BMP280;57377;45.130;6.038;2022-08-04T04:02:04;92699.25;;;23.72
40968;BMP280;57377;45.130;6.038;2022-08-04T04:15:31;92698.25;;;24.52
40968;BMP280;57377;45.130;6.038;2022-08-04T04:18:22;92699.47;;;24.61
40968;BMP280;57377;45.130;6.038;2022-08-04T04:21:36;92699.56;;;24.72
40968;BMP280;57377;45.130;6.038;2022-08-04T04:29:59;92711.34;;;24.31
40968;BMP280;57377;45.130;6.038;2022-08-04T04:40:33;92708.81;;;24.45
40968;BMP280;57377;45.130;6.038;2022-08-04T04:45:41;92717.78;;;24.30
40968;BMP280;57377;45.130;6.038;2022-08-04T04:48:32;92725.50;;;24.10
40968;BMP280;57377;45.130;6.038;2022-08-04T04:53:35;92733.44;;;24.35
40968;BMP280;57377;45.130;6.038;2022-08-04T04:56:11;92727.53;;;24.55
40968;BMP280;57377;45.130;6.038;2022-08-04T04:58:40;92735.34;;;24.38
40968;BMP280;57377;45.130;6.038;2022-08-04T05:01:51;92723.50;;;24.68
40968;BMP280;57377;45.130;6.038;2022-08-04T05:11:22;92733.97;;;24.18
40968;BMP280;57377;45.130;6.038;2022-08-04T05:14:09;92729.69;;;24.43
40968;BMP280;57377;45.130;6.038;2022-08-04T05:16:43;92734.75;;;24.55
40968;BMP280;57377;45.130;6.038;2022-08-04T05:19:52;92731.25;;;24.44
40968;BMP280;57377;45.130;6.038;2022-08-04T05:24:46;92733.84;;;24.37
40968;BMP280;57377;45.130;6.038;2022-08-04T05:27:17;92724.84;;;24.52
40968;BMP280;57377;45.130;6.038;2022-08-04T05:29:59;92738.88;;;24.16
40968;BMP280;57377;45.130;6.038;2022-08-04T05:32:31;92741.53;;;24.16
40968;BMP280;57377;45.130;6.038;2022-08-04T05:35:10;92740.66;;;24.38
40968;BMP280;57377;45.130;6.038;2022-08-04T05:37:38;92743.31;;;24.35
40968;BMP280;57377;45.130;6.038;2022-08-04T05:40:05;92746.13;;;24.19
40968;BMP280;57377;45.130;6.038;2022-08-04T05:42:32;92757.72;;;24.34
40968;BMP280;57377;45.130;6.038;2022-08-04T05:45:01;92749.38;;;23.74
40968;BMP280;57377;45.130;6.038;2022-08-04T05:47:27;92744.31;;;23.94
40968;BMP280;57377;45.130;6.038;2022-08-04T05:49:54;92737.09;;;24.24
40968;BMP280;57377;45.130;6.038;2022-08-04T05:52:21;92737.72;;;24.14
40968;BMP280;57377;45.130;6.038;2022-08-04T05:54:47;92742.75;;;24.22
40968;BMP280;57377;45.130;6.038;2022-08-04T05:57:13;92734.09;;;24.29
40968;BMP280;57377;45.130;6.038;2022-08-04T05:59:40;92745.25;;;24.41
40968;BMP280;57377;45.130;6.038;2022-08-04T06:02:10;92740.91;;;24.23
40968;BMP280;57377;45.130;6.038;2022-08-04T06:04:38;92732.56;;;24.64
40968;BMP280;57377;45.130;6.038;2022-08-04T06:07:05;92739.44;;;24.29
40968;BMP280;57377;45.130;6.038;2022-08-04T06:09:31;92740.00;;;24.45
40968;BMP280;57377;45.130;6.038;2022-08-04T06:12:03;92730.66;;;24.64
40968;BMP280;57377;45.130;6.038;2022-08-04T06:14:42;92730.19;;;24.91
40968;BMP280;57377;45.130;6.038;2022-08-04T06:17:10;92726.44;;;24.99
40968;BMP280;57377;45.130;6.038;2022-08-04T06:19:39;92724.97;;;25.09
40968;BMP280;57377;45.130;6.038;2022-08-04T06:22:07;92732.59;;;25.10
40968;BMP280;57377;45.130;6.038;2022-08-04T06:24:36;92724.94;;;25.51
40968;BMP280;57377;45.130;6.038;2022-08-04T06:27:03;92730.78;;;25.74
40968;BMP280;57377;45.130;6.038;2022-08-04T06:29:31;92730.78;;;25.74
40968;BMP280;57377;45.130;6.038;2022-08-04T06:32:21;92735.63;;;25.55
40968;BMP280;57377;45.130;6.038;2022-08-04T06:35:40;92732.53;;;26.23
40968;BMP280;57377;45.130;6.038;2022-08-04T06:38:52;92730.69;;;26.41
40968;BMP280;57377;45.130;6.038;2022-08-04T07:16:43;92724.69;;;27.09
40968;BMP280;57377;45.130;6.038;2022-08-04T07:19:08;92725.84;;;27.12
40968;BMP280;57377;45.130;6.038;2022-08-04T07:21:34;92725.84;;;26.95
40968;BMP280;57377;45.130;6.038;2022-08-04T07:23:59;92730.41;;;26.91
40968;BMP280;57377;45.130;6.038;2022-08-04T07:26:28;92729.63;;;27.01
40968;BMP280;57377;45.130;6.038;2022-08-04T07:28:53;92735.38;;;27.06
40968;BMP280;57377;45.130;6.038;2022-08-04T07:31:19;92733.47;;;27.07
40968;BMP280;57377;45.130;6.038;2022-08-04T07:33:47;92737.28;;;27.06
40968;BMP280;57377;45.130;6.038;2022-08-04T07:36:13;92731.19;;;27.19
40968;BMP280;57377;45.130;6.038;2022-08-04T07:38:41;92735.38;;;27.23
40968;BMP280;57377;45.130;6.038;2022-08-04T07:41:06;92733.44;;;26.86
40968;BMP280;57377;45.130;6.038;2022-08-04T07:43:32;92729.63;;;26.76
40968;BMP280;57377;45.130;6.038;2022-08-04T07:45:59;92731.41;;;26.28
40968;BMP280;57377;45.130;6.038;2022-08-04T07:48:25;92733.31;;;26.27
40968;BMP280;57377;45.130;6.038;2022-08-04T07:50:51;92728.88;;;27.00
40968;BMP280;57377;45.130;6.038;2022-08-04T07:53:17;92725.47;;;27.41
40968;BMP280;57377;45.130;6.038;2022-08-04T07:55:44;92730.75;;;27.72
40968;BMP280;57377;45.130;6.038;2022-08-04T07:58:10;92734.22;;;27.69
40968;BMP280;57377;45.130;6.038;2022-08-04T08:00:35;92730.34;;;27.84
40968;BMP280;57377;45.130;6.038;2022-08-04T08:03:02;92733.38;;;27.93
40968;BMP280;57377;45.130;6.038;2022-08-04T08:05:27;92721.84;;;28.20
40968;BMP280;57377;45.130;6.038;2022-08-04T08:07:54;92728.03;;;27.96
40968;BMP280;57377;45.130;6.038;2022-08-04T10:32:33;92592.88;;;33.38
40968;BMP280;57377;45.130;6.038;2022-08-04T10:35:27;92589.09;;;33.64
40968;BMP280;57377;45.130;6.038;2022-08-04T10:38:14;92588.06;;;33.74
40968;BMP280;57377;45.130;6.038;2022-08-04T10:40:47;92587.38;;;33.70
40968;BMP280;57377;45.130;6.038;2022-08-04T10:46:31;92572.63;;;34.02
40968;BMP280;57377;45.130;6.038;2022-08-04T10:49:08;92562.34;;;34.10
40968;BMP280;57377;45.130;6.038;2022-08-04T10:54:42;92563.84;;;33.70
40968;BMP280;57377;45.130;6.038;2022-08-04T10:57:36;92554.78;;;34.05
40968;BMP280;57377;45.130;6.038;2022-08-04T11:00:06;92562.94;;;33.77
40968;BMP280;57377;45.130;6.038;2022-08-04T11:08:15;92557.13;;;33.91
40968;BMP280;57377;45.130;6.038;2022-08-04T11:10:45;92552.91;;;33.90
40968;BMP280;57377;45.130;6.038;2022-08-04T11:13:15;92559.03;;;33.78
40968;BMP280;57377;45.130;6.038;2022-08-04T11:15:47;92564.75;;;33.80
40968;BMP280;57377;45.130;6.038;2022-08-04T11:18:24;92553.88;;;33.83
40968;BMP280;57377;45.130;6.038;2022-08-04T11:20:55;92553.88;;;33.83
40968;BMP280;57377;45.130;6.038;2022-08-04T11:23:28;92554.63;;;33.84
40968;BMP280;57377;45.130;6.038;2022-08-04T11:26:08;92558.03;;;34.12
40968;BMP280;57377;45.130;6.038;2022-08-04T11:28:57;92559.31;;;34.08
40968;BMP280;57377;45.130;6.038;2022-08-04T11:31:30;92558.78;;;34.00
40968;BMP280;57377;45.130;6.038;2022-08-04T11:34:03;92542.84;;;34.55
40968;BMP280;57377;45.130;6.038;2022-08-04T11:39:12;92542.50;;;34.65
40968;BMP280;57377;45.130;6.038;2022-08-04T11:41:47;92536.13;;;34.96
40968;BMP280;57377;45.130;6.038;2022-08-04T11:44:25;92541.44;;;34.88
40968;BMP280;57377;45.130;6.038;2022-08-04T11:46:57;92540.69;;;34.75
40968;BMP280;57377;45.130;6.038;2022-08-04T11:49:28;92540.53;;;35.03
40968;BMP280;57377;45.130;6.038;2022-08-04T11:51:59;92542.84;;;34.92
40968;BMP280;57377;45.130;6.038;2022-08-04T11:54:25;92538.06;;;34.96
40968;BMP280;57377;45.130;6.038;2022-08-04T11:56:52;92527.06;;;34.78
40968;BMP280;57377;45.130;6.038;2022-08-04T11:59:21;92526.72;;;34.76
40968;BMP280;57377;45.130;6.038;2022-08-04T12:02:05;92528.97;;;34.90
40968;BMP280;57377;45.130;6.038;2022-08-04T12:07:15;92517.09;;;34.88
40968;BMP280;57377;45.130;6.038;2022-08-04T12:09:48;92530.50;;;34.91
40968;BMP280;57377;45.130;6.038;2022-08-04T12:15:17;92523.63;;;34.41
40968;BMP280;57377;45.130;6.038;2022-08-04T12:20:47;92514.84;;;34.37
40968;BMP280;57377;45.130;6.038;2022-08-04T12:23:21;92515.41;;;34.32
40968;BMP280;57377;45.130;6.038;2022-08-04T12:25:51;92509.34;;;34.28
40968;BMP280;57377;45.130;6.038;2022-08-04T12:28:25;92513.69;;;33.85
40968;BMP280;57377;45.130;6.038;2022-08-04T12:30:57;92515.91;;;34.02
40968;BMP280;57377;45.130;6.038;2022-08-04T12:33:30;92513.41;;;33.95
40968;BMP280;57377;45.130;6.038;2022-08-04T12:36:03;92508.22;;;33.89
40968;BMP280;57377;45.130;6.038;2022-08-04T12:38:34;92495.03;;;33.78
40968;BMP280;57377;45.130;6.038;2022-08-04T12:41:01;92495.13;;;33.87
40968;BMP280;57377;45.130;6.038;2022-08-04T12:43:40;92499.25;;;33.92
40968;BMP280;57377;45.130;6.038;2022-08-04T12:46:11;92500.66;;;33.56
40968;BMP280;57377;45.130;6.038;2022-08-04T12:48:38;92506.69;;;33.88
40968;BMP280;57377;45.130;6.038;2022-08-04T12:51:07;92491.59;;;34.02
40968;BMP280;57377;45.130;6.038;2022-08-04T12:53:38;92491.34;;;34.09
40968;BMP280;57377;45.130;6.038;2022-08-04T12:56:05;92496.75;;;34.09
40968;BMP280;57377;45.130;6.038;2022-08-04T12:58:41;92494.38;;;34.11
40968;BMP280;57377;45.130;6.038;2022-08-04T13:01:27;92497.09;;;33.99
40968;BMP280;57377;45.130;6.038;2022-08-04T13:04:09;92496.09;;;33.81
40968;BMP280;57377;45.130;6.038;2022-08-04T13:06:36;92498.34;;;33.82
40968;BMP280;57377;45.130;6.038;2022-08-04T13:09:06;92483.44;;;33.78
40968;BMP280;57377;45.130;6.038;2022-08-04T13:11:42;92486.16;;;33.78
40968;BMP280;57377;45.130;6.038;2022-08-04T13:14:12;92486.59;;;33.89
40968;BMP280;57377;45.130;6.038;2022-08-04T13:16:39;92487.78;;;33.88
40968;BMP280;57377;45.130;6.038;2022-08-04T13:19:06;92482.97;;;33.27
40968;BMP280;57377;45.130;6.038;2022-08-04T13:21:32;92493.34;;;33.12
40968;BMP280;57377;45.130;6.038;2022-08-04T13:24:05;92489.72;;;33.19
40968;BMP280;57377;45.130;6.038;2022-08-04T13:26:33;92500.00;;;33.08
40968;BMP280;57377;45.130;6.038;2022-08-04T13:29:02;92501.66;;;33.18
40968;BMP280;57377;45.130;6.038;2022-08-04T13:31:30;92504.88;;;33.13
40968;BMP280;57377;45.130;6.038;2022-08-04T13:34:06;92503.53;;;33.21
40968;BMP280;57377;45.130;6.038;2022-08-04T13:36:33;92503.84;;;32.95
40968;BMP280;57377;45.130;6.038;2022-08-04T13:39:07;92524.63;;;32.63
40968;BMP280;57377;45.130;6.038;2022-08-04T13:41:35;92504.16;;;32.18
40968;BMP280;57377;45.130;6.038;2022-08-04T13:44:04;92509.94;;;32.00
40968;BMP280;57377;45.130;6.038;2022-08-04T13:46:37;92501.84;;;32.16
40968;BMP280;57377;45.130;6.038;2022-08-04T13:49:08;92500.81;;;31.95
40968;BMP280;57377;45.130;6.038;2022-08-04T13:51:34;92504.78;;;32.06
40968;BMP280;57377;45.130;6.038;2022-08-04T13:54:00;92508.31;;;32.38
40968;BMP280;57377;45.130;6.038;2022-08-04T13:56:35;92508.03;;;31.98
40968;BMP280;57377;45.130;6.038;2022-08-04T13:59:03;92528.84;;;31.78
40968;BMP280;57377;45.130;6.038;2022-08-04T14:01:31;92520.06;;;31.55
40968;BMP280;57377;45.130;6.038;2022-08-04T14:04:17;92528.97;;;31.52
40968;BMP280;57377;45.130;6.038;2022-08-04T14:07:10;92528.84;;;31.78
40968;BMP280;57377;45.130;6.038;2022-08-04T14:09:38;92524.53;;;31.99
40968;BMP280;57377;45.130;6.038;2022-08-04T14:12:09;92518.72;;;31.85
40968;BMP280;57377;45.130;6.038;2022-08-04T14:14:43;92522.94;;;31.86
40968;BMP280;57377;45.130;6.038;2022-08-04T14:17:17;92515.97;;;32.04
40968;BMP280;57377;45.130;6.038;2022-08-04T14:25:08;92518.88;;;32.29
40968;BMP280;57377;45.130;6.038;2022-08-04T14:30:32;92533.25;;;32.23
40968;BMP280;57377;45.130;6.038;2022-08-04T14:33:05;92522.31;;;32.14
40968;BMP280;57377;45.130;6.038;2022-08-04T14:35:31;92537.78;;;31.71
40968;BMP280;57377;45.130;6.038;2022-08-04T14:38:00;92526.44;;;32.18
40968;BMP280;57377;45.130;6.038;2022-08-04T14:40:31;92532.56;;;32.03
40968;BMP280;57377;45.130;6.038;2022-08-04T14:42:58;92531.13;;;32.14
40968;BMP280;57377;45.130;6.038;2022-08-04T14:45:41;92534.28;;;31.74
40968;BMP280;57377;45.130;6.038;2022-08-04T14:48:09;92528.56;;;31.92
40968;BMP280;57377;45.130;6.038;2022-08-04T14:50:38;92528.91;;;31.94
40968;BMP280;57377;45.130;6.038;2022-08-04T14:53:07;92528.09;;;32.12
40968;BMP280;57377;45.130;6.038;2022-08-04T14:55:33;92531.84;;;32.34
40968;BMP280;57377;45.130;6.038;2022-08-04T14:57:58;92525.19;;;32.23
40968;BMP280;57377;45.130;6.038;2022-08-04T15:00:26;92533.22;;;32.42
40968;BMP280;57377;45.130;6.038;2022-08-04T15:02:51;92532.19;;;32.36
40968;BMP280;57377;45.130;6.038;2022-08-04T15:05:19;92532.66;;;32.15
40968;BMP280;57377;45.130;6.038;2022-08-04T15:07:45;92529.88;;;32.03
40968;BMP280;57377;45.130;6.038;2022-08-04T15:10:11;92529.44;;;32.04
40968;BMP280;57377;45.130;6.038;2022-08-04T15:12:36;92537.31;;;31.96
40968;BMP280;57377;45.130;6.038;2022-08-04T15:15:02;92535.50;;;32.08
40968;BMP280;57377;45.130;6.038;2022-08-04T15:17:27;92538.06;;;32.15
40968;BMP280;57377;45.130;6.038;2022-08-04T15:19:54;92546.09;;;31.99
40968;BMP280;57377;45.130;6.038;2022-08-04T15:22:20;92555.63;;;31.85
40968;BMP280;57377;45.130;6.038;2022-08-04T15:24:45;92567.59;;;31.00
40968;BMP280;57377;45.130;6.038;2022-08-04T15:27:11;92573.91;;;30.90
40968;BMP280;57377;45.130;6.038;2022-08-04T15:29:45;92584.22;;;30.43
40968;BMP280;57377;45.130;6.038;2022-08-04T15:32:14;92584.50;;;29.63
40968;BMP280;57377;45.130;6.038;2022-08-04T15:34:48;92603.47;;;29.79
40968;BMP280;57377;45.130;6.038;2022-08-04T15:37:52;92642.22;;;29.38
40968;BMP280;57377;45.130;6.038;2022-08-04T15:45:31;92689.81;;;27.99
40968;BMP280;57377;45.130;6.038;2022-08-04T15:50:31;92733.44;;;27.69
40968;BMP280;57377;45.130;6.038;2022-08-04T16:00:26;92770.88;;;27.27
40968;BMP280;57377;45.130;6.038;2022-08-04T16:02:52;92786.91;;;27.58
40968;BMP280;57377;45.130;6.038;2022-08-04T16:12:57;92833.25;;;26.50
40968;BMP280;57377;45.130;6.038;2022-08-04T16:15:44;92837.03;;;26.42
40968;BMP280;57377;45.130;6.038;2022-08-04T16:18:39;92836.44;;;26.83
40968;BMP280;57377;45.130;6.038;2022-08-04T16:21:18;92846.38;;;26.83
40968;BMP280;57377;45.130;6.038;2022-08-04T16:23:55;92841.09;;;27.21
40968;BMP280;57377;45.130;6.038;2022-08-04T16:32:14;92844.06;;;26.81
40968;BMP280;57377;45.130;6.038;2022-08-04T16:34:47;92838.00;;;26.84
40968;BMP280;57377;45.130;6.038;2022-08-04T16:37:13;92850.03;;;26.54
40968;BMP280;57377;45.130;6.038;2022-08-04T16:39:40;92847.50;;;26.78
40968;BMP280;57377;45.130;6.038;2022-08-04T16:50:21;92839.19;;;27.04
40968;BMP280;57377;45.130;6.038;2022-08-04T16:52:53;92844.94;;;27.23
40968;BMP280;57377;45.130;6.038;2022-08-04T16:55:21;92851.16;;;25.83
40968;BMP280;57377;45.130;6.038;2022-08-04T16:57:51;92846.91;;;26.35
40968;BMP280;57377;45.130;6.038;2022-08-04T17:00:27;92840.63;;;26.81
40968;BMP280;57377;45.130;6.038;2022-08-04T17:02:52;92844.50;;;26.97
40968;BMP280;57377;45.130;6.038;2022-08-04T17:05:22;92844.56;;;27.18
40968;BMP280;57377;45.130;6.038;2022-08-04T17:07:55;92837.59;;;26.82
40968;BMP280;57377;45.130;6.038;2022-08-04T17:10:31;92850.59;;;26.10
40968;BMP280;57377;45.130;6.038;2022-08-04T17:12:57;92832.88;;;26.52
40968;BMP280;57377;45.130;6.038;2022-08-04T17:15:24;92834.69;;;26.31
40968;BMP280;57377;45.130;6.038;2022-08-04T17:17:50;92828.56;;;26.23
40968;BMP280;57377;45.130;6.038;2022-08-04T17:20:15;92832.41;;;26.36
40968;BMP280;57377;45.130;6.038;2022-08-04T17:22:41;92824.81;;;26.35
40968;BMP280;57377;45.130;6.038;2022-08-04T17:25:07;92824.44;;;26.40
40968;BMP280;57377;45.130;6.038;2022-08-04T17:27:33;92821.09;;;26.67
40968;BMP280;57377;45.130;6.038;2022-08-04T17:29:59;92825.59;;;25.75
40968;BMP280;57377;45.130;6.038;2022-08-04T17:32:24;92814.13;;;26.35
40968;BMP280;57377;45.130;6.038;2022-08-04T17:34:52;92812.59;;;26.27
40968;BMP280;57377;45.130;6.038;2022-08-04T17:37:20;92804.13;;;26.14
40968;BMP280;57377;45.130;6.038;2022-08-04T17:39:49;92801.63;;;26.49
40968;BMP280;57377;45.130;6.038;2022-08-04T17:42:27;92798.13;;;26.38
40968;BMP280;57377;45.130;6.038;2022-08-04T17:45:05;92801.66;;;26.66
40968;BMP280;57377;45.130;6.038;2022-08-04T17:47:31;92801.28;;;26.61
40968;BMP280;57377;45.130;6.038;2022-08-04T17:50:07;92800.50;;;26.60
40968;BMP280;57377;45.130;6.038;2022-08-04T17:52:33;92808.38;;;26.22
40968;BMP280;57377;45.130;6.038;2022-08-04T17:55:01;92803.91;;;26.54
40968;BMP280;57377;45.130;6.038;2022-08-04T17:57:26;92797.47;;;26.69
40968;BMP280;57377;45.130;6.038;2022-08-04T17:59:54;92800.47;;;26.46
40968;BMP280;57377;45.130;6.038;2022-08-04T18:02:30;92799.84;;;26.87
40968;BMP280;57377;45.130;6.038;2022-08-04T18:04:56;92793.00;;;27.00
40968;BMP280;57377;45.130;6.038;2022-08-04T18:07:36;92791.41;;;26.75
40968;BMP280;57377;45.130;6.038;2022-08-04T18:10:03;92791.25;;;26.30
40968;BMP280;57377;45.130;6.038;2022-08-04T18:12:30;92780.22;;;26.45
40968;BMP280;57377;45.130;6.038;2022-08-04T18:14:58;92789.66;;;26.15
40968;BMP280;57377;45.130;6.038;2022-08-04T18:17:43;92785.34;;;25.94
40968;BMP280;57377;45.130;6.038;2022-08-04T18:20:14;92786.06;;;25.87
40968;BMP280;57377;45.130;6.038;2022-08-04T18:22:47;92796.81;;;26.05
40968;BMP280;57377;45.130;6.038;2022-08-04T18:25:14;92793.41;;;26.11
40968;BMP280;57377;45.130;6.038;2022-08-04T18:27:51;92782.91;;;26.45
40968;BMP280;57377;45.130;6.038;2022-08-04T18:30:18;92786.78;;;26.58
40968;BMP280;57377;45.130;6.038;2022-08-04T18:32:44;92786.66;;;26.31
40968;BMP280;57377;45.130;6.038;2022-08-04T18:35:10;92795.56;;;26.66
40968;BMP280;57377;45.130;6.038;2022-08-04T18:37:36;92796.38;;;26.83
40968;BMP280;57377;45.130;6.038;2022-08-04T18:40:02;92795.88;;;26.50
40968;BMP280;57377;45.130;6.038;2022-08-04T18:42:27;92801.22;;;26.43
40968;BMP280;57377;45.130;6.038;2022-08-04T18:44:52;92792.47;;;26.50
40968;BMP280;57377;45.130;6.038;2022-08-04T18:47:22;92806.31;;;25.45
40968;BMP280;57377;45.130;6.038;2022-08-04T18:49:51;92808.44;;;25.73
40968;BMP280;57377;45.130;6.038;2022-08-04T18:52:17;92810.25;;;25.58
40968;BMP280;57377;45.130;6.038;2022-08-04T18:54:42;92806.44;;;25.13
40968;BMP280;57377;45.130;6.038;2022-08-04T18:57:07;92807.44;;;24.98
40968;BMP280;57377;45.130;6.038;2022-08-04T18:59:33;92803.75;;;25.56
40968;BMP280;57377;45.130;6.038;2022-08-04T19:01:58;92815.91;;;24.75
40968;BMP280;57377;45.130;6.038;2022-08-04T19:04:24;92804.09;;;25.05
40968;BMP280;57377;45.130;6.038;2022-08-04T19:06:49;92803.63;;;24.99
40968;BMP280;57377;45.130;6.038;2022-08-04T19:09:14;92803.53;;;25.28
40968;BMP280;57377;45.130;6.038;2022-08-04T19:11:40;92800.97;;;24.99
40968;BMP280;57377;45.130;6.038;2022-08-04T19:14:06;92804.41;;;25.46
40968;BMP280;57377;45.130;6.038;2022-08-04T19:16:32;92811.41;;;25.61
40968;BMP280;57377;45.130;6.038;2022-08-04T19:19:00;92812.56;;;25.60
40968;BMP280;57377;45.130;6.038;2022-08-04T19:21:28;92800.81;;;25.21
40968;BMP280;57377;45.130;6.038;2022-08-04T19:23:53;92815.47;;;25.48
40968;BMP280;57377;45.130;6.038;2022-08-04T19:26:19;92812.91;;;25.58
40968;BMP280;57377;45.130;6.038;2022-08-04T19:28:46;92810.03;;;25.84
40968;BMP280;57377;45.130;6.038;2022-08-04T19:31:12;92816.22;;;26.02
40968;BMP280;57377;45.130;6.038;2022-08-04T19:33:38;92821.75;;;25.69
40968;BMP280;57377;45.130;6.038;2022-08-04T19:36:05;92824.78;;;25.68
40968;BMP280;57377;45.130;6.038;2022-08-04T19:38:31;92820.03;;;26.01
40968;BMP280;57377;45.130;6.038;2022-08-04T19:40:57;92829.56;;;26.02
40968;BMP280;57377;45.130;6.038;2022-08-04T19:43:22;92824.94;;;25.92
40968;BMP280;57377;45.130;6.038;2022-08-04T19:45:48;92821.41;;;25.74
40968;BMP280;57377;45.130;6.038;2022-08-04T19:48:13;92832.50;;;25.33
40968;BMP280;57377;45.130;6.038;2022-08-04T19:50:39;92828.97;;;25.69
40968;BMP280;57377;45.130;6.038;2022-08-04T19:53:05;92833.38;;;26.01
40968;BMP280;57377;45.130;6.038;2022-08-04T19:55:30;92832.81;;;25.75
40968;BMP280;57377;45.130;6.038;2022-08-04T19:58:00;92833.72;;;25.46
40968;BMP280;57377;45.130;6.038;2022-08-04T20:00:25;92834.16;;;25.09
40968;BMP280;57377;45.130;6.038;2022-08-04T20:02:50;92845.03;;;24.93
40968;BMP280;57377;45.130;6.038;2022-08-04T20:05:16;92838.09;;;24.85
40968;BMP280;57377;45.130;6.038;2022-08-04T20:07:41;92844.91;;;24.83
40968;BMP280;57377;45.130;6.038;2022-08-04T20:10:07;92848.59;;;25.08
40968;BMP280;57377;45.130;6.038;2022-08-04T20:12:33;92834.56;;;25.53
40968;BMP280;57377;45.130;6.038;2022-08-04T20:14:59;92836.66;;;25.77
40968;BMP280;57377;45.130;6.038;2022-08-04T20:17:24;92836.66;;;25.77
40968;BMP280;57377;45.130;6.038;2022-08-04T20:19:50;92843.53;;;25.81
40968;BMP280;57377;45.130;6.038;2022-08-04T20:22:15;92843.56;;;25.85
40968;BMP280;57377;45.130;6.038;2022-08-04T20:24:43;92836.41;;;25.99
40968;BMP280;57377;45.130;6.038;2022-08-04T20:27:12;92839.06;;;25.49
40968;BMP280;57377;45.130;6.038;2022-08-04T20:29:38;92846.88;;;24.24
40968;BMP280;57377;45.130;6.038;2022-08-04T20:32:03;92843.56;;;24.99
40968;BMP280;57377;45.130;6.038;2022-08-04T20:34:28;92842.72;;;24.88
40968;BMP280;57377;45.130;6.038;2022-08-04T20:36:54;92837.69;;;24.83
40968;BMP280;57377;45.130;6.038;2022-08-04T20:39:19;92826.16;;;25.09
40968;BMP280;57377;45.130;6.038;2022-08-04T20:41:47;92829.16;;;25.46
40968;BMP280;57377;45.130;6.038;2022-08-04T20:44:12;92837.13;;;25.43
40968;BMP280;57377;45.130;6.038;2022-08-04T20:46:38;92833.06;;;25.59